createdAt,value
2022-09-14T00:01:08.304Z,97602.23
2022-09-14T00:02:10.930Z,97602.55
2022-09-14T00:03:12.753Z,97599.11
2022-09-14T00:04:18.235Z,97599.81
2022-09-14T00:05:20.010Z,97593.68
2022-09-14T00:06:22.745Z,97592.29
2022-09-14T00:07:24.463Z,97592.80
2022-09-14T00:08:26.177Z,97594.63
2022-09-14T00:09:28.028Z,97589.61
2022-09-14T00:10:32.653Z,97587.95
2022-09-14T00:14:08.167Z,97586.80
2022-09-14T00:18:09.664Z,97576.58
2022-09-14T00:19:29.675Z,97574.45
2022-09-14T00:20:31.960Z,97573.42
2022-09-14T00:21:36.076Z,97574.29
2022-09-14T00:22:37.829Z,97570.84
2022-09-14T00:23:42.216Z,97572.98
2022-09-14T00:24:43.883Z,97567.33
2022-09-14T00:25:45.601Z,97569.52
2022-09-14T00:26:47.391Z,97572.27
2022-09-14T00:27:49.189Z,97574.05
2022-09-14T00:28:54.395Z,97570.31
2022-09-14T00:29:56.060Z,97575.05
2022-09-14T00:30:57.733Z,97571.22
2022-09-14T00:31:59.933Z,97571.48
2022-09-14T00:33:01.630Z,97573.84
2022-09-14T00:34:05.194Z,97568.58
2022-09-14T00:35:07.134Z,97573.40
2022-09-14T00:36:11.854Z,97571.27
2022-09-14T00:37:13.462Z,97569.64
2022-09-14T00:38:15.039Z,97566.50
2022-09-14T00:39:18.509Z,97565.36
2022-09-14T00:40:20.372Z,97566.04
2022-09-14T00:41:29.496Z,97564.60
2022-09-14T00:42:31.469Z,97561.55
2022-09-14T00:43:50.829Z,97561.77
2022-09-14T00:44:52.763Z,97562.38
2022-09-14T00:45:54.865Z,97564.65
2022-09-14T00:47:01.494Z,97565.31
2022-09-14T00:48:03.269Z,97568.26
2022-09-14T00:49:13.192Z,97563.60
2022-09-14T00:50:15.720Z,97560.96
2022-09-14T00:51:20.953Z,97559.48
2022-09-14T00:52:28.536Z,97557.69
2022-09-14T00:53:30.862Z,97558.22
2022-09-14T00:54:33.029Z,97553.75
2022-09-14T00:55:34.765Z,97555.67
2022-09-14T00:56:36.675Z,97552.83
2022-09-14T00:57:44.572Z,97552.79
2022-09-14T00:58:51.518Z,97550.55
2022-09-14T00:59:55.617Z,97551.09
2022-09-14T01:00:58.694Z,97549.87
2022-09-14T01:02:01.062Z,97549.33
2022-09-14T01:03:02.977Z,97549.07
2022-09-14T01:04:04.763Z,97554.31
2022-09-14T01:05:07.951Z,97550.36
2022-09-14T01:06:09.990Z,97553.91
2022-09-14T01:07:38.478Z,97553.98
2022-09-14T01:09:00.766Z,97555.20
2022-09-14T01:10:37.392Z,97558.86
2022-09-14T01:11:56.673Z,97556.42
2022-09-14T01:13:41.921Z,97555.27
2022-09-14T01:14:56.879Z,97553.72
2022-09-14T01:16:25.391Z,97553.70
2022-09-14T01:17:55.577Z,97553.16
2022-09-14T01:19:01.853Z,97554.17
2022-09-14T01:20:19.826Z,97549.31
2022-09-14T01:21:29.641Z,97550.85
2022-09-14T01:23:01.139Z,97550.78
2022-09-14T01:24:39.674Z,97552.77
2022-09-14T01:25:59.901Z,97549.93
2022-09-14T01:27:01.563Z,97553.02
2022-09-14T01:28:16.594Z,97556.33
2022-09-14T01:29:21.215Z,97549.80
2022-09-14T01:30:24.581Z,97550.37
2022-09-14T01:31:43.563Z,97547.58
2022-09-14T01:32:53.528Z,97548.52
2022-09-14T01:34:16.199Z,97549.06
2022-09-14T01:35:33.675Z,97544.14
2022-09-14T01:36:39.891Z,97545.25
2022-09-14T01:37:49.791Z,97547.04
2022-09-14T01:38:55.548Z,97544.96
2022-09-14T01:40:07.515Z,97544.09
2022-09-14T01:41:17.304Z,97546.55
2022-09-14T01:42:25.330Z,97543.58
2022-09-14T01:43:37.696Z,97543.27
2022-09-14T01:44:46.554Z,97546.44
2022-09-14T01:45:57.755Z,97544.23
2022-09-14T01:47:20.470Z,97540.16
2022-09-14T01:48:34.220Z,97540.55
2022-09-14T01:49:59.544Z,97541.55
2022-09-14T01:51:12.653Z,97542.36
2022-09-14T01:52:22.464Z,97543.67
2022-09-14T01:53:42.070Z,97545.51
2022-09-14T01:54:56.988Z,97543.91
2022-09-14T01:56:10.992Z,97543.98
2022-09-14T01:57:21.511Z,97542.54
2022-09-14T01:58:34.630Z,97539.08
2022-09-14T01:59:45.725Z,97543.52
2022-09-14T02:00:50.767Z,97540.00
2022-09-14T02:02:02.975Z,97538.91
2022-09-14T02:03:14.481Z,97533.52
2022-09-14T02:04:29.392Z,97534.38
2022-09-14T02:05:35.934Z,97531.96
2022-09-14T02:06:43.611Z,97528.20
2022-09-14T02:07:45.507Z,97528.68
2022-09-14T02:08:48.175Z,97527.02
2022-09-14T02:09:54.408Z,97523.67
2022-09-14T02:10:57.988Z,97526.88
2022-09-14T02:12:00.947Z,97520.48
2022-09-14T02:13:03.369Z,97522.67
2022-09-14T02:14:06.032Z,97521.30
2022-09-14T02:15:11.856Z,97518.38
2022-09-14T02:16:14.197Z,97517.67
2022-09-14T02:17:16.253Z,97516.02
2022-09-14T02:18:19.513Z,97518.15
2022-09-14T02:19:23.986Z,97513.86
2022-09-14T02:20:39.966Z,97509.89
2022-09-14T02:21:42.223Z,97507.89
2022-09-14T02:22:44.128Z,97509.27
2022-09-14T02:23:48.022Z,97515.04
2022-09-14T02:24:50.944Z,97513.39
2022-09-14T02:25:53.014Z,97513.37
2022-09-14T02:26:58.870Z,97515.06
2022-09-14T02:28:00.617Z,97513.35
2022-09-14T02:29:02.888Z,97512.17
2022-09-14T02:30:05.303Z,97509.69
2022-09-14T02:31:41.900Z,97512.91
2022-09-14T02:33:03.909Z,97509.57
2022-09-14T02:34:19.158Z,97512.16
2022-09-14T02:35:32.585Z,97511.46
2022-09-14T02:37:14.009Z,97508.69
2022-09-14T02:38:28.207Z,97507.41
2022-09-14T02:39:57.334Z,97502.52
2022-09-14T02:41:05.226Z,97498.58
2022-09-14T02:42:15.898Z,97500.14
2022-09-14T02:43:46.626Z,97496.54
2022-09-14T02:44:59.646Z,97492.86
2022-09-14T02:46:03.885Z,97488.16
2022-09-14T02:47:26.850Z,97495.55
2022-09-14T02:48:41.997Z,97494.77
2022-09-14T02:50:11.858Z,97493.55
2022-09-14T02:51:27.320Z,97490.73
2022-09-14T02:52:40.689Z,97483.83
2022-09-14T02:53:53.886Z,97488.98
2022-09-14T02:55:04.828Z,97488.12
2022-09-14T02:56:10.044Z,97486.90
2022-09-14T02:57:11.988Z,97491.33
2022-09-14T02:58:14.953Z,97490.50
2022-09-14T02:59:17.122Z,97490.44
2022-09-14T03:00:18.896Z,97486.91
2022-09-14T03:01:23.020Z,97487.34
2022-09-14T03:02:24.907Z,97483.67
2022-09-14T03:03:26.637Z,97488.18
2022-09-14T03:04:28.721Z,97483.46
2022-09-14T03:05:30.420Z,97485.11
2022-09-14T03:06:32.638Z,97482.30
2022-09-14T03:07:34.281Z,97481.39
2022-09-14T03:08:36.403Z,97478.41
2022-09-14T03:09:38.198Z,97477.95
2022-09-14T03:10:43.920Z,97480.11
2022-09-14T03:11:45.535Z,97475.13
2022-09-14T03:12:48.011Z,97472.54
2022-09-14T03:13:49.669Z,97472.16
2022-09-14T03:14:51.581Z,97473.92
2022-09-14T03:15:53.567Z,97473.19
2022-09-14T03:16:55.352Z,97472.44
2022-09-14T03:17:57.096Z,97470.77
2022-09-14T03:18:58.776Z,97469.66
2022-09-14T03:20:00.738Z,97470.95
2022-09-14T03:21:04.926Z,97469.88
2022-09-14T03:22:06.855Z,97469.58
2022-09-14T03:23:10.828Z,97468.11
2022-09-14T03:24:12.533Z,97465.77
2022-09-14T03:25:14.821Z,97469.19
2022-09-14T03:26:20.452Z,97466.64
2022-09-14T03:27:22.250Z,97469.66
2022-09-14T03:28:23.908Z,97466.66
2022-09-14T03:29:25.585Z,97465.73
2022-09-14T03:30:28.035Z,97466.27
2022-09-14T03:31:30.021Z,97466.62
2022-09-14T03:32:33.016Z,97470.77
2022-09-14T03:33:34.779Z,97472.79
2022-09-14T03:34:36.737Z,97471.90
2022-09-14T03:35:38.704Z,97476.13
2022-09-14T03:36:40.434Z,97473.16
2022-09-14T03:37:44.293Z,97475.29
2022-09-14T03:38:48.724Z,97474.98
2022-09-14T03:39:50.378Z,97475.19
2022-09-14T03:40:53.178Z,97468.08
2022-09-14T03:41:55.262Z,97470.02
2022-09-14T03:42:56.991Z,97468.56
2022-09-14T03:43:58.645Z,97466.93
2022-09-14T03:45:00.468Z,97471.48
2022-09-14T03:46:11.130Z,97468.11
2022-09-14T03:47:12.846Z,97470.08
2022-09-14T03:48:15.809Z,97468.77
2022-09-14T03:49:17.498Z,97465.86
2022-09-14T03:50:19.881Z,97469.77
2022-09-14T03:51:22.454Z,97471.45
2022-09-14T03:52:24.199Z,97473.11
2022-09-14T03:53:25.874Z,97470.04
2022-09-14T03:54:28.202Z,97470.55
2022-09-14T03:55:29.861Z,97467.65
2022-09-14T03:56:31.639Z,97468.48
2022-09-14T03:57:33.828Z,97474.73
2022-09-14T03:58:35.548Z,97474.30
2022-09-14T03:59:40.531Z,97471.83
2022-09-14T04:00:45.209Z,97470.77
2022-09-14T04:01:47.939Z,97472.75
2022-09-14T04:02:49.965Z,97473.17
2022-09-14T04:03:51.683Z,97474.83
2022-09-14T04:04:53.776Z,97472.31
2022-09-14T04:05:56.520Z,97470.48
2022-09-14T04:06:58.197Z,97472.10
2022-09-14T04:08:00.009Z,97471.74
2022-09-14T04:09:01.953Z,97470.86
2022-09-14T04:10:06.194Z,97470.77
2022-09-14T04:11:15.353Z,97471.58
2022-09-14T04:12:17.523Z,97475.44
2022-09-14T04:13:19.341Z,97480.04
2022-09-14T04:14:21.100Z,97480.27
2022-09-14T04:15:22.764Z,97476.99
2022-09-14T04:16:24.514Z,97474.76
2022-09-14T04:17:26.269Z,97475.23
2022-09-14T04:18:29.071Z,97474.65
2022-09-14T04:19:31.242Z,97477.55
2022-09-14T04:20:33.025Z,97474.28
2022-09-14T04:21:34.769Z,97471.22
2022-09-14T04:22:36.576Z,97471.13
2022-09-14T04:25:00.027Z,97475.42
2022-09-14T04:26:01.730Z,97475.13
2022-09-14T04:27:03.503Z,97477.02
2022-09-14T04:28:19.763Z,97475.23
2022-09-14T04:29:22.372Z,97475.02
2022-09-14T04:30:24.099Z,97473.64
2022-09-14T04:31:26.512Z,97471.58
2022-09-14T04:32:33.521Z,97470.95
2022-09-14T04:33:37.425Z,97471.66
2022-09-14T04:34:39.138Z,97473.40
2022-09-14T04:35:40.734Z,97477.05
2022-09-14T04:36:42.403Z,97478.96
2022-09-14T04:37:44.477Z,97473.11
2022-09-14T04:38:46.758Z,97475.61
2022-09-14T04:39:48.531Z,97475.66
2022-09-14T04:40:50.306Z,97473.01
2022-09-14T04:41:52.275Z,97474.34
2022-09-14T04:42:53.920Z,97475.92
2022-09-14T04:43:57.156Z,97476.43
2022-09-14T04:44:58.829Z,97476.31
2022-09-14T04:46:10.497Z,97476.08
2022-09-14T04:47:12.194Z,97478.55
2022-09-14T04:48:13.882Z,97481.81
2022-09-14T04:49:18.833Z,97479.52
2022-09-14T04:50:20.578Z,97482.46
2022-09-14T04:51:26.773Z,97480.31
2022-09-14T04:52:28.463Z,97482.68
2022-09-14T04:53:30.730Z,97479.83
2022-09-14T04:54:32.753Z,97479.23
2022-09-14T04:55:34.538Z,97478.69
2022-09-14T04:56:37.130Z,97479.25
2022-09-14T04:57:38.839Z,97480.63
2022-09-14T04:58:51.201Z,97480.65
2022-09-14T04:59:53.246Z,97480.66
2022-09-14T05:01:01.026Z,97479.00
2022-09-14T05:02:02.824Z,97476.92
2022-09-14T05:03:05.286Z,97477.48
2022-09-14T05:04:09.191Z,97478.20
2022-09-14T05:05:10.937Z,97477.24
2022-09-14T05:06:16.026Z,97473.58
2022-09-14T05:07:17.632Z,97478.91
2022-09-14T05:08:19.328Z,97475.78
2022-09-14T05:09:21.633Z,97479.49
2022-09-14T05:10:23.944Z,97475.23
2022-09-14T05:11:28.651Z,97476.42
2022-09-14T05:12:30.499Z,97474.86
2022-09-14T05:13:33.461Z,97483.08
2022-09-14T05:14:35.157Z,97482.41
2022-09-14T05:15:37.214Z,97481.70
2022-09-14T05:16:42.172Z,97482.02
2022-09-14T05:17:43.849Z,97481.95
2022-09-14T05:18:46.781Z,97484.22
2022-09-14T05:19:48.499Z,97484.03
2022-09-14T05:20:50.167Z,97488.73
2022-09-14T05:21:51.921Z,97483.39
2022-09-14T05:22:53.580Z,97484.61
2022-09-14T05:24:00.763Z,97484.19
2022-09-14T05:25:02.466Z,97484.31
2022-09-14T05:26:05.966Z,97485.90
2022-09-14T05:27:07.806Z,97484.62
2022-09-14T05:28:09.502Z,97486.02
2022-09-14T05:29:17.134Z,97486.12
2022-09-14T05:30:18.773Z,97486.79
2022-09-14T05:31:21.719Z,97485.31
2022-09-14T05:32:23.426Z,97489.34
2022-09-14T05:33:25.355Z,97485.48
2022-09-14T05:34:27.062Z,97484.40
2022-09-14T05:35:28.697Z,97484.34
2022-09-14T05:36:30.388Z,97481.52
2022-09-14T05:37:32.071Z,97481.49
2022-09-14T05:38:36.565Z,97480.24
2022-09-14T05:39:38.675Z,97478.55
2022-09-14T05:40:40.525Z,97476.16
2022-09-14T05:41:42.447Z,97477.54
2022-09-14T05:42:44.221Z,97481.38
2022-09-14T05:43:46.198Z,97479.14
2022-09-14T05:44:47.968Z,97479.52
2022-09-14T05:45:50.772Z,97483.70
2022-09-14T05:46:52.642Z,97485.97
2022-09-14T05:47:54.369Z,97486.30
2022-09-14T05:48:56.286Z,97488.73
2022-09-14T05:49:58.248Z,97491.19
2022-09-14T05:51:07.388Z,97494.93
2022-09-14T05:52:09.122Z,97493.01
2022-09-14T05:53:10.759Z,97492.44
2022-09-14T05:54:12.453Z,97490.37
2022-09-14T05:55:14.638Z,97493.02
2022-09-14T05:56:17.561Z,97492.36
2022-09-14T05:57:19.836Z,97494.80
2022-09-14T05:58:21.681Z,97493.19
2022-09-14T05:59:23.308Z,97493.40
2022-09-14T06:00:25.636Z,97492.96
2022-09-14T06:01:30.295Z,97495.48
2022-09-14T06:02:32.218Z,97491.61
2022-09-14T06:03:35.011Z,97497.04
2022-09-14T06:04:36.706Z,97494.51
2022-09-14T06:05:38.667Z,97490.14
2022-09-14T06:06:40.460Z,97492.11
2022-09-14T06:07:42.266Z,97492.27
2022-09-14T06:08:45.029Z,97490.61
2022-09-14T06:09:46.684Z,97490.65
2022-09-14T06:10:48.528Z,97488.93
2022-09-14T06:11:50.282Z,97489.59
2022-09-14T06:12:55.391Z,97490.24
2022-09-14T06:13:57.569Z,97491.79
2022-09-14T06:14:59.257Z,97491.05
2022-09-14T06:16:06.825Z,97491.26
2022-09-14T06:17:08.480Z,97491.36
2022-09-14T06:18:10.133Z,97489.40
2022-09-14T06:19:12.440Z,97491.23
2022-09-14T06:20:14.378Z,97490.61
2022-09-14T06:21:19.290Z,97491.00
2022-09-14T06:22:21.218Z,97489.55
2022-09-14T06:23:23.376Z,97493.36
2022-09-14T06:24:25.122Z,97493.16
2022-09-14T06:25:28.150Z,97493.92
2022-09-14T06:26:30.078Z,97494.64
2022-09-14T06:27:31.746Z,97497.52
2022-09-14T06:28:35.161Z,97497.39
2022-09-14T06:29:36.817Z,97496.34
2022-09-14T06:30:42.838Z,97495.27
2022-09-14T06:31:44.461Z,97502.23
2022-09-14T06:32:46.134Z,97505.50
2022-09-14T06:33:49.329Z,97500.22
2022-09-14T06:34:50.981Z,97500.83
2022-09-14T06:35:56.510Z,97497.30
2022-09-14T06:36:58.435Z,97498.09
2022-09-14T06:38:00.042Z,97495.29
2022-09-14T06:39:01.643Z,97496.73
2022-09-14T06:40:04.531Z,97495.98
2022-09-14T06:41:09.179Z,97501.29
2022-09-14T06:42:10.838Z,97500.48
2022-09-14T06:43:13.844Z,97500.20
2022-09-14T06:44:16.169Z,97499.58
2022-09-14T06:45:17.775Z,97500.87
2022-09-14T06:46:23.620Z,97503.78
2022-09-14T06:47:25.320Z,97507.96
2022-09-14T06:48:29.854Z,97509.22
2022-09-14T06:49:31.619Z,97511.52
2022-09-14T06:50:33.267Z,97515.27
2022-09-14T06:51:37.616Z,97513.34
2022-09-14T06:52:40.134Z,97517.11
2022-09-14T06:53:42.361Z,97511.15
2022-09-14T06:54:43.959Z,97515.11
2022-09-14T06:55:45.866Z,97514.18
2022-09-14T06:56:47.710Z,97515.45
2022-09-14T06:57:49.515Z,97516.16
2022-09-14T06:58:52.200Z,97517.67
2022-09-14T06:59:54.106Z,97517.65
2022-09-14T07:01:02.546Z,97519.34
2022-09-14T07:02:04.446Z,97516.25
2022-09-14T07:03:06.574Z,97520.00
2022-09-14T07:04:08.966Z,97516.74
2022-09-14T07:05:10.901Z,97519.79
2022-09-14T07:06:22.019Z,97519.05
2022-09-14T07:07:23.757Z,97525.16
2022-09-14T07:08:28.478Z,97523.76
2022-09-14T07:09:31.740Z,97530.52
2022-09-14T07:10:33.721Z,97528.57
2022-09-14T07:11:35.830Z,97529.49
2022-09-14T07:12:37.442Z,97531.40
2022-09-14T07:13:39.624Z,97530.55
2022-09-14T07:14:41.606Z,97528.70
2022-09-14T07:15:49.314Z,97529.41
2022-09-14T07:16:50.957Z,97532.69
2022-09-14T07:17:53.694Z,97531.39
2022-09-14T07:19:01.981Z,97526.59
2022-09-14T07:20:05.597Z,97527.66
2022-09-14T07:21:11.731Z,97522.97
2022-09-14T07:22:13.345Z,97522.27
2022-09-14T07:23:15.178Z,97525.39
2022-09-14T07:24:16.876Z,97525.45
2022-09-14T07:25:18.686Z,97519.52
2022-09-14T07:26:29.592Z,97526.39
2022-09-14T07:27:31.237Z,97523.79
2022-09-14T07:28:33.959Z,97523.11
2022-09-14T07:29:35.566Z,97528.11
2022-09-14T07:30:38.735Z,97531.27
2022-09-14T07:31:43.902Z,97523.77
2022-09-14T07:32:45.598Z,97526.33
2022-09-14T07:33:48.565Z,97525.91
2022-09-14T07:34:50.228Z,97520.58
2022-09-14T07:35:52.910Z,97524.77
2022-09-14T07:36:54.535Z,97522.01
2022-09-14T07:37:56.219Z,97516.89
2022-09-14T07:38:58.167Z,97519.42
2022-09-14T07:40:00.206Z,97518.52
2022-09-14T07:41:02.246Z,97521.11
2022-09-14T07:42:04.070Z,97516.23
2022-09-14T07:43:06.461Z,97518.45
2022-09-14T07:44:09.406Z,97516.82
2022-09-14T07:45:11.162Z,97513.58
2022-09-14T07:46:12.818Z,97516.31
2022-09-14T07:47:15.077Z,97515.02
2022-09-14T07:48:16.835Z,97516.14
2022-09-14T07:49:18.535Z,97513.66
2022-09-14T07:50:20.567Z,97514.64
2022-09-14T07:51:23.836Z,97512.91
2022-09-14T07:52:26.080Z,97510.14
2022-09-14T07:53:27.826Z,97510.00
2022-09-14T07:54:29.451Z,97511.27
2022-09-14T07:55:31.222Z,97510.90
2022-09-14T07:56:34.904Z,97510.04
2022-09-14T07:57:55.227Z,97510.55
2022-09-14T07:59:23.834Z,97509.15
2022-09-14T08:00:22.016Z,97513.73
2022-09-14T08:01:23.816Z,97514.71
2022-09-14T08:02:25.566Z,97516.95
2022-09-14T08:03:29.239Z,97515.01
2022-09-14T08:04:30.847Z,97513.27
2022-09-14T08:05:32.457Z,97516.44
2022-09-14T08:06:34.656Z,97520.21
2022-09-14T08:07:36.338Z,97522.05
2022-09-14T08:08:41.880Z,97519.73
2022-09-14T08:09:43.434Z,97516.42
2022-09-14T08:10:44.989Z,97522.15
2022-09-14T08:11:46.575Z,97519.13
2022-09-14T08:12:53.197Z,97515.65
2022-09-14T08:14:00.520Z,97514.42
2022-09-14T08:15:02.115Z,97510.48
2022-09-14T08:16:06.037Z,97512.55
2022-09-14T08:17:08.018Z,97511.24
2022-09-14T08:18:09.750Z,97507.55
2022-09-14T08:19:17.706Z,97512.18
2022-09-14T08:20:19.992Z,97514.42
2022-09-14T08:21:23.262Z,97514.53
2022-09-14T08:22:25.530Z,97515.73
2022-09-14T08:23:27.293Z,97515.17
2022-09-14T08:24:28.859Z,97520.23
2022-09-14T08:25:31.317Z,97517.95
2022-09-14T08:26:36.643Z,97514.86
2022-09-14T08:27:39.314Z,97512.89
2022-09-14T08:28:41.966Z,97513.16
2022-09-14T08:29:43.579Z,97518.33
2022-09-14T08:30:45.135Z,97513.32
2022-09-14T08:31:48.581Z,97511.94
2022-09-14T08:32:50.154Z,97511.16
2022-09-14T08:33:54.884Z,97512.41
2022-09-14T08:34:56.417Z,97510.55
2022-09-14T08:35:58.477Z,97508.23
2022-09-14T08:37:00.162Z,97512.58
2022-09-14T08:38:01.775Z,97510.08
2022-09-14T08:39:10.150Z,97515.17
2022-09-14T08:40:13.984Z,97515.80
2022-09-14T08:41:27.535Z,97517.30
2022-09-14T08:42:30.625Z,97520.92
2022-09-14T08:43:32.950Z,97518.14
2022-09-14T08:44:42.948Z,97520.06
2022-09-14T08:45:45.793Z,97514.49
2022-09-14T08:46:58.824Z,97516.35
2022-09-14T08:48:00.838Z,97513.04
2022-09-14T08:49:13.998Z,97512.18
2022-09-14T08:50:20.810Z,97512.24
2022-09-14T08:51:23.350Z,97514.34
2022-09-14T08:52:34.327Z,97509.33
2022-09-14T08:53:41.518Z,97516.09
2022-09-14T08:54:44.189Z,97509.85
2022-09-14T08:55:52.090Z,97513.74
2022-09-14T08:57:09.522Z,97517.23
2022-09-14T08:58:53.258Z,97517.63
2022-09-14T09:00:18.633Z,97523.63
2022-09-14T09:01:33.246Z,97519.38
2022-09-14T09:02:40.666Z,97519.27
2022-09-14T09:03:58.066Z,97516.27
2022-09-14T09:05:05.388Z,97521.81
2022-09-14T09:06:18.309Z,97521.54
2022-09-14T09:07:44.314Z,97521.98
2022-09-14T09:09:24.123Z,97521.04
2022-09-14T09:10:28.351Z,97522.63
2022-09-14T09:11:40.547Z,97517.20
2022-09-14T09:12:57.108Z,97513.86
2022-09-14T09:14:00.502Z,97516.47
2022-09-14T09:15:14.901Z,97518.59
2022-09-14T09:16:23.159Z,97516.17
2022-09-14T09:17:33.852Z,97513.45
2022-09-14T09:18:48.065Z,97517.98
2022-09-14T09:20:18.842Z,97515.39
2022-09-14T09:21:28.996Z,97512.73
2022-09-14T09:22:39.573Z,97517.38
2022-09-14T09:23:43.098Z,97519.66
2022-09-14T09:24:52.632Z,97515.96
2022-09-14T09:26:19.340Z,97517.69
2022-09-14T09:27:22.598Z,97521.04
2022-09-14T09:28:26.426Z,97517.79
2022-09-14T09:29:28.586Z,97519.21
2022-09-14T09:30:46.970Z,97516.30
2022-09-14T09:31:53.061Z,97517.55
2022-09-14T09:33:22.724Z,97513.23
2022-09-14T09:34:46.154Z,97513.61
2022-09-14T09:35:58.325Z,97516.96
2022-09-14T09:37:04.485Z,97515.17
2022-09-14T09:38:15.877Z,97515.87
2022-09-14T09:39:17.978Z,97507.04
2022-09-14T09:40:36.597Z,97508.50
2022-09-14T09:42:02.066Z,97509.10
2022-09-14T09:43:11.386Z,97504.63
2022-09-14T09:44:13.411Z,97507.85
2022-09-14T09:45:15.153Z,97509.17
2022-09-14T09:46:17.999Z,97507.64
2022-09-14T09:47:27.295Z,97506.79
2022-09-14T09:48:37.876Z,97508.05
2022-09-14T09:49:40.002Z,97507.80
2022-09-14T09:51:11.001Z,97511.95
2022-09-14T09:52:16.766Z,97511.22
2022-09-14T09:53:22.437Z,97512.32
2022-09-14T09:54:31.125Z,97515.99
2022-09-14T09:55:39.454Z,97512.57
2022-09-14T09:56:53.040Z,97517.69
2022-09-14T09:57:55.011Z,97516.09
2022-09-14T09:58:56.663Z,97513.54
2022-09-14T10:00:13.812Z,97515.11
2022-09-14T10:01:34.649Z,97512.54
2022-09-14T10:02:36.456Z,97516.88
2022-09-14T10:03:40.595Z,97522.01
2022-09-14T10:05:05.706Z,97518.98
2022-09-14T10:06:11.486Z,97520.65
2022-09-14T10:07:22.592Z,97518.80
2022-09-14T10:08:24.522Z,97519.75
2022-09-14T10:09:28.629Z,97519.70
2022-09-14T10:10:35.923Z,97522.92
2022-09-14T10:11:38.556Z,97521.45
2022-09-14T10:12:50.787Z,97525.36
2022-09-14T10:13:53.225Z,97527.76
2022-09-14T10:15:11.668Z,97529.37
2022-09-14T10:16:19.848Z,97534.37
2022-09-14T10:17:23.675Z,97533.16
2022-09-14T10:18:29.135Z,97529.39
2022-09-14T10:19:32.957Z,97532.50
2022-09-14T10:20:37.151Z,97531.95
2022-09-14T10:22:04.664Z,97536.11
2022-09-14T10:23:18.158Z,97534.91
2022-09-14T10:24:21.061Z,97539.05
2022-09-14T10:25:26.187Z,97533.93
2022-09-14T10:26:33.556Z,97529.66
2022-09-14T10:27:46.181Z,97530.52
2022-09-14T10:28:50.388Z,97534.10
2022-09-14T10:29:56.507Z,97532.64
2022-09-14T10:31:07.288Z,97535.46
2022-09-14T10:32:24.130Z,97534.33
2022-09-14T10:33:25.978Z,97539.13
2022-09-14T10:34:29.066Z,97536.16
2022-09-14T10:36:08.986Z,97537.58
2022-09-14T10:37:27.940Z,97536.42
2022-09-14T10:38:37.012Z,97535.60
2022-09-14T10:39:59.194Z,97537.73
2022-09-14T10:41:21.898Z,97536.78
2022-09-14T10:42:34.933Z,97535.42
2022-09-14T10:44:03.217Z,97537.58
2022-09-14T10:45:18.117Z,97539.98
2022-09-14T10:46:30.986Z,97535.42
2022-09-14T10:48:07.652Z,97537.03
2022-09-14T10:49:37.919Z,97535.72
2022-09-14T10:50:59.802Z,97538.86
2022-09-14T10:52:26.464Z,97533.40
2022-09-14T10:54:22.077Z,97528.73
2022-09-14T10:55:49.766Z,97524.58
2022-09-14T10:57:19.484Z,97525.64
2022-09-14T10:58:55.801Z,97522.58
2022-09-14T11:00:09.811Z,97518.82
2022-09-14T11:01:36.084Z,97518.70
2022-09-14T11:02:47.669Z,97515.02
2022-09-14T11:04:21.071Z,97517.04
2022-09-14T11:05:42.447Z,97513.30
2022-09-14T11:06:56.913Z,97514.39
2022-09-14T11:08:37.248Z,97515.50
2022-09-14T11:10:08.507Z,97515.80
2022-09-14T11:11:43.448Z,97520.88
2022-09-14T11:13:10.500Z,97516.80
2022-09-14T11:14:34.189Z,97514.64
2022-09-14T11:15:46.857Z,97515.16
2022-09-14T11:16:48.437Z,97513.83
2022-09-14T11:18:06.656Z,97514.98
2022-09-14T11:19:34.286Z,97508.45
2022-09-14T11:21:09.033Z,97504.84
2022-09-14T11:22:47.378Z,97503.05
2022-09-14T11:24:00.322Z,97499.59
2022-09-14T11:25:19.046Z,97495.67
2022-09-14T11:26:42.503Z,97492.95
2022-09-14T11:28:00.754Z,97489.45
2022-09-14T11:29:28.910Z,97494.94
2022-09-14T11:30:43.009Z,97498.86
2022-09-14T11:32:17.012Z,97503.98
2022-09-14T11:33:30.888Z,97499.10
2022-09-14T11:34:54.810Z,97497.89
2022-09-14T11:36:07.143Z,97499.36
2022-09-14T11:37:14.493Z,97497.77
2022-09-14T11:38:34.974Z,97500.02
2022-09-14T11:39:43.323Z,97496.02
2022-09-14T11:41:00.453Z,97498.14
2022-09-14T11:42:14.426Z,97492.69
2022-09-14T11:43:43.582Z,97494.66
2022-09-14T11:44:47.060Z,97494.80
2022-09-14T11:45:55.139Z,97493.77
2022-09-14T11:47:01.599Z,97493.79
2022-09-14T11:48:44.310Z,97490.08
2022-09-14T11:50:07.093Z,97490.85
2022-09-14T11:51:24.567Z,97486.70
2022-09-14T11:52:30.334Z,97488.63
2022-09-14T11:53:33.582Z,97489.56
2022-09-14T11:54:42.429Z,97493.45
2022-09-14T11:55:49.942Z,97490.49
2022-09-14T11:57:03.669Z,97492.58
2022-09-14T11:58:12.302Z,97490.42
2022-09-14T11:59:39.217Z,97488.09
2022-09-14T12:01:06.996Z,97483.02
2022-09-14T12:02:23.877Z,97482.08
2022-09-14T12:03:48.546Z,97481.10
2022-09-14T12:05:05.770Z,97476.58
2022-09-14T12:06:32.255Z,97470.91
2022-09-14T12:07:39.920Z,97468.63
2022-09-14T12:08:41.734Z,97469.33
2022-09-14T12:09:44.572Z,97465.45
2022-09-14T12:11:25.014Z,97466.62
2022-09-14T12:12:32.983Z,97464.11
2022-09-14T12:13:36.075Z,97462.76
2022-09-14T12:14:40.608Z,97463.77
2022-09-14T12:15:42.956Z,97462.09
2022-09-14T12:17:17.662Z,97467.37
2022-09-14T12:18:28.791Z,97472.91
2022-09-14T12:19:31.458Z,97470.67
2022-09-14T12:20:42.769Z,97467.73
2022-09-14T12:21:44.516Z,97472.59
2022-09-14T12:22:50.018Z,97471.13
2022-09-14T12:23:57.944Z,97465.18
2022-09-14T12:25:08.770Z,97466.64
2022-09-14T12:26:10.435Z,97465.35
2022-09-14T12:27:22.981Z,97467.08
2022-09-14T12:28:40.010Z,97468.54
2022-09-14T12:29:42.093Z,97464.84
2022-09-14T12:30:44.660Z,97467.71
2022-09-14T12:31:48.876Z,97465.19
2022-09-14T12:32:51.077Z,97464.23
2022-09-14T12:34:06.066Z,97463.70
2022-09-14T12:35:32.565Z,97465.17
2022-09-14T12:36:36.863Z,97463.98
2022-09-14T12:37:38.458Z,97460.64
2022-09-14T12:38:43.150Z,97464.73
2022-09-14T12:40:31.418Z,97463.54
2022-09-14T12:41:53.308Z,97458.02
2022-09-14T12:42:55.189Z,97466.98
2022-09-14T12:43:56.844Z,97465.74
2022-09-14T12:45:37.253Z,97467.54
2022-09-14T12:46:39.960Z,97458.36
2022-09-14T12:47:50.913Z,97464.50
2022-09-14T12:49:14.561Z,97464.20
2022-09-14T12:50:20.717Z,97462.42
2022-09-14T12:51:28.947Z,97459.96
2022-09-14T12:53:05.893Z,97460.54
2022-09-14T12:54:08.150Z,97459.27
2022-09-14T12:55:45.065Z,97458.64
2022-09-14T12:56:58.801Z,97461.03
2022-09-14T12:58:22.953Z,97462.32
2022-09-14T12:59:36.756Z,97465.85
2022-09-14T13:01:11.170Z,97468.75
2022-09-14T13:02:37.471Z,97462.31
2022-09-14T13:03:48.665Z,97456.77
2022-09-14T13:04:57.113Z,97455.42
2022-09-14T13:05:58.911Z,97456.52
2022-09-14T13:07:05.929Z,97454.18
2022-09-14T13:08:12.874Z,97457.98
2022-09-14T13:09:24.959Z,97455.23
2022-09-14T13:10:35.757Z,97454.85
2022-09-14T13:11:41.174Z,97453.94
2022-09-14T13:12:48.693Z,97456.18
2022-09-14T13:13:51.300Z,97448.73
2022-09-14T13:14:57.960Z,97449.91
2022-09-14T13:16:03.374Z,97446.17
2022-09-14T13:17:12.138Z,97449.78
2022-09-14T13:18:19.445Z,97444.54
2022-09-14T13:19:27.517Z,97445.69
2022-09-14T13:20:34.718Z,97445.77
2022-09-14T13:21:46.648Z,97452.79
2022-09-14T13:22:48.355Z,97450.02
2022-09-14T13:23:50.869Z,97450.55
2022-09-14T13:24:53.874Z,97455.14